Wickenburg, Arizona
Current Conditions -  °F | °C
As of 9:58 AM on Friday 19 Dec 2014 (Local Time) from KLUF Reporting Station
Clear Clear  
Wind Chill: 50°   Ceiling: Unl
Heat Index: 50°   Visibility: 10mi
Dew Point: 41°   Wind: 0mph
Humidity: 72%   Direction: NA
Pressure: 30.25"   Gusts: NA
Location:  33.97°N, 112.75°W
Report Text: KLUF 191658Z AUTO 00000KT 10SM CLR 10/05 A3025 RMK AO2 VIS 1 1/4 RWY21 DZB1558E08DZB36E43 SLP244 P0000 T01000051 $
Loading
Personal Weather Stations






























Interactive Weather Map New forecast layout! Learn more

10-Day Weather Forecast

Advertisements
Track Severe Weather on mobile